sensor_id;sensor_type;location;lat;lon;timestamp;pressure;altitude;pressure_sealevel;temperature;humidity
13027;BME280;6580;42.680;23.324;2023-02-13T00:00:07;97049.06;;;1.67;100.00
13027;BME280;6580;42.680;23.324;2023-02-13T00:02:35;97046.41;;;1.69;100.00
13027;BME280;6580;42.680;23.324;2023-02-13T00:05:04;97036.25;;;1.38;100.00
13027;BME280;6580;42.680;23.324;2023-02-13T00:07:32;97049.59;;;1.32;100.00
13027;BME280;6580;42.680;23.324;2023-02-13T00:10:01;97046.91;;;1.34;100.00
13027;BME280;6580;42.680;23.324;2023-02-13T00:12:33;97046.44;;;1.23;100.00
13027;BME280;6580;42.680;23.324;2023-02-13T00:15:04;97052.22;;;1.32;100.00
13027;BME280;6580;42.680;23.324;2023-02-13T00:17:32;97052.66;;;1.43;100.00
13027;BME280;6580;42.680;23.324;2023-02-13T00:20:01;97050.97;;;1.42;100.00
13027;BME280;6580;42.680;23.324;2023-02-13T00:22:30;97057.50;;;1.54;100.00
13027;BME280;6580;42.680;23.324;2023-02-13T00:25:00;97062.38;;;1.84;100.00
13027;BME280;6580;42.680;23.324;2023-02-13T00:27:33;97051.03;;;1.62;100.00
13027;BME280;6580;42.680;23.324;2023-02-13T00:30:02;97053.31;;;1.48;100.00
13027;BME280;6580;42.680;23.324;2023-02-13T00:32:29;97055.66;;;1.56;100.00
13027;BME280;6580;42.680;23.324;2023-02-13T00:34:56;97060.19;;;1.74;100.00
13027;BME280;6580;42.680;23.324;2023-02-13T00:37:23;97070.75;;;1.72;100.00
13027;BME280;6580;42.680;23.324;2023-02-13T00:39:51;97055.00;;;1.72;100.00
13027;BME280;6580;42.680;23.324;2023-02-13T00:42:20;97058.66;;;1.68;100.00
13027;BME280;6580;42.680;23.324;2023-02-13T00:44:57;97056.75;;;1.50;100.00
13027;BME280;6580;42.680;23.324;2023-02-13T00:47:25;97064.75;;;1.47;100.00
13027;BME280;6580;42.680;23.324;2023-02-13T00:49:52;97057.22;;;1.38;100.00
13027;BME280;6580;42.680;23.324;2023-02-13T00:52:22;97063.97;;;1.45;100.00
13027;BME280;6580;42.680;23.324;2023-02-13T00:54:49;97063.91;;;1.47;100.00
13027;BME280;6580;42.680;23.324;2023-02-13T00:57:15;97066.22;;;1.54;100.00
13027;BME280;6580;42.680;23.324;2023-02-13T00:59:42;97072.28;;;1.78;100.00
13027;BME280;6580;42.680;23.324;2023-02-13T01:02:11;97071.16;;;1.62;100.00
13027;BME280;6580;42.680;23.324;2023-02-13T01:04:39;97074.94;;;1.55;100.00
13027;BME280;6580;42.680;23.324;2023-02-13T01:07:06;97073.59;;;1.45;100.00
13027;BME280;6580;42.680;23.324;2023-02-13T01:09:33;97075.09;;;1.52;100.00
13027;BME280;6580;42.680;23.324;2023-02-13T01:12:01;97061.72;;;1.79;100.00
13027;BME280;6580;42.680;23.324;2023-02-13T01:14:31;97064.22;;;1.82;100.00
13027;BME280;6580;42.680;23.324;2023-02-13T01:17:01;97063.28;;;1.83;100.00
13027;BME280;6580;42.680;23.324;2023-02-13T01:19:29;97055.91;;;1.71;100.00
13027;BME280;6580;42.680;23.324;2023-02-13T01:21:56;97058.72;;;1.88;100.00
13027;BME280;6580;42.680;23.324;2023-02-13T01:24:27;97064.09;;;1.85;100.00
13027;BME280;6580;42.680;23.324;2023-02-13T01:26:55;97070.63;;;1.97;100.00
13027;BME280;6580;42.680;23.324;2023-02-13T01:29:22;97076.75;;;1.97;100.00
13027;BME280;6580;42.680;23.324;2023-02-13T01:31:50;97063.06;;;1.89;100.00
13027;BME280;6580;42.680;23.324;2023-02-13T01:34:18;97077.84;;;2.13;100.00
13027;BME280;6580;42.680;23.324;2023-02-13T01:36:47;97081.72;;;2.03;100.00
13027;BME280;6580;42.680;23.324;2023-02-13T01:39:19;97078.19;;;2.04;100.00
13027;BME280;6580;42.680;23.324;2023-02-13T01:41:46;97083.56;;;2.01;100.00
13027;BME280;6580;42.680;23.324;2023-02-13T01:44:49;97083.63;;;1.99;100.00
13027;BME280;6580;42.680;23.324;2023-02-13T01:47:23;97074.97;;;1.98;100.00
13027;BME280;6580;42.680;23.324;2023-02-13T01:49:58;97081.13;;;1.97;100.00
13027;BME280;6580;42.680;23.324;2023-02-13T01:52:33;97083.00;;;2.14;100.00
13027;BME280;6580;42.680;23.324;2023-02-13T01:55:03;97081.66;;;2.26;100.00
13027;BME280;6580;42.680;23.324;2023-02-13T01:57:31;97089.81;;;1.98;100.00
13027;BME280;6580;42.680;23.324;2023-02-13T02:00:03;97086.19;;;2.01;100.00
13027;BME280;6580;42.680;23.324;2023-02-13T02:02:36;97085.75;;;2.11;100.00
13027;BME280;6580;42.680;23.324;2023-02-13T02:05:05;97087.66;;;2.08;100.00
13027;BME280;6580;42.680;23.324;2023-02-13T02:07:40;97092.81;;;2.11;100.00
13027;BME280;6580;42.680;23.324;2023-02-13T02:10:13;97089.13;;;2.15;100.00
13027;BME280;6580;42.680;23.324;2023-02-13T02:12:46;97080.06;;;2.22;100.00
13027;BME280;6580;42.680;23.324;2023-02-13T02:15:19;97075.09;;;2.16;100.00
13027;BME280;6580;42.680;23.324;2023-02-13T02:17:46;97075.56;;;2.04;100.00
13027;BME280;6580;42.680;23.324;2023-02-13T02:20:21;97081.72;;;2.03;100.00
13027;BME280;6580;42.680;23.324;2023-02-13T02:23:23;97040.75;;;1.99;100.00
13027;BME280;6580;42.680;23.324;2023-02-13T02:26:39;97078.19;;;2.25;100.00
13027;BME280;6580;42.680;23.324;2023-02-13T02:35:52;97076.13;;;2.12;100.00
13027;BME280;6580;42.680;23.324;2023-02-13T02:38:37;97081.44;;;1.89;100.00
13027;BME280;6580;42.680;23.324;2023-02-13T02:41:12;97090.84;;;1.95;100.00
13027;BME280;6580;42.680;23.324;2023-02-13T02:44:11;97098.91;;;1.90;100.00
13027;BME280;6580;42.680;23.324;2023-02-13T02:46:54;97089.94;;;1.96;100.00
13027;BME280;6580;42.680;23.324;2023-02-13T02:49:41;97097.31;;;1.86;100.00
13027;BME280;6580;42.680;23.324;2023-02-13T02:52:42;97100.81;;;1.87;100.00
13027;BME280;6580;42.680;23.324;2023-02-13T02:55:17;97108.63;;;1.88;100.00
13027;BME280;6580;42.680;23.324;2023-02-13T02:57:50;97106.19;;;1.84;100.00
13027;BME280;6580;42.680;23.324;2023-02-13T03:00:38;97112.13;;;1.89;100.00
13027;BME280;6580;42.680;23.324;2023-02-13T03:03:24;97104.22;;;2.10;100.00
13027;BME280;6580;42.680;23.324;2023-02-13T03:06:14;97117.72;;;1.80;100.00
13027;BME280;6580;42.680;23.324;2023-02-13T03:08:49;97109.81;;;1.81;100.00
13027;BME280;6580;42.680;23.324;2023-02-13T03:11:36;97105.25;;;2.06;100.00
13027;BME280;6580;42.680;23.324;2023-02-13T03:14:22;97105.16;;;1.88;100.00
13027;BME280;6580;42.680;23.324;2023-02-13T03:16:53;97110.09;;;1.95;100.00
13027;BME280;6580;42.680;23.324;2023-02-13T03:19:49;97102.72;;;2.04;100.00
13027;BME280;6580;42.680;23.324;2023-02-13T03:22:44;97098.69;;;1.96;100.00
13027;BME280;6580;42.680;23.324;2023-02-13T03:25:20;97088.63;;;1.84;100.00
13027;BME280;6580;42.680;23.324;2023-02-13T03:27:57;97091.41;;;2.02;100.00
13027;BME280;6580;42.680;23.324;2023-02-13T03:30:51;97109.72;;;2.04;100.00
13027;BME280;6580;42.680;23.324;2023-02-13T03:33:29;97105.44;;;2.23;100.00
13027;BME280;6580;42.680;23.324;2023-02-13T03:36:05;97095.63;;;2.06;100.00
13027;BME280;6580;42.680;23.324;2023-02-13T03:38:54;97112.06;;;1.90;100.00
13027;BME280;6580;42.680;23.324;2023-02-13T03:41:31;97108.22;;;1.77;100.00
13027;BME280;6580;42.680;23.324;2023-02-13T03:44:14;97108.44;;;2.14;100.00
13027;BME280;6580;42.680;23.324;2023-02-13T03:46:44;97105.31;;;2.26;100.00
13027;BME280;6580;42.680;23.324;2023-02-13T03:49:19;97107.69;;;2.32;100.00
13027;BME280;6580;42.680;23.324;2023-02-13T03:52:08;97113.81;;;2.11;100.00
13027;BME280;6580;42.680;23.324;2023-02-13T03:54:42;97098.56;;;1.99;100.00
13027;BME280;6580;42.680;23.324;2023-02-13T03:57:33;97108.50;;;1.91;100.00
13027;BME280;6580;42.680;23.324;2023-02-13T04:00:23;97100.63;;;1.91;100.00
13027;BME280;6580;42.680;23.324;2023-02-13T04:02:56;97108.63;;;2.09;100.00
13027;BME280;6580;42.680;23.324;2023-02-13T04:05:28;97102.91;;;2.00;100.00
13027;BME280;6580;42.680;23.324;2023-02-13T04:07:56;97110.22;;;1.92;100.00
13027;BME280;6580;42.680;23.324;2023-02-13T04:10:24;97108.59;;;1.90;100.00
13027;BME280;6580;42.680;23.324;2023-02-13T04:13:05;97110.22;;;1.92;100.00
13027;BME280;6580;42.680;23.324;2023-02-13T04:15:41;97108.28;;;1.97;100.00
13027;BME280;6580;42.680;23.324;2023-02-13T04:18:15;97100.63;;;1.91;100.00
13027;BME280;6580;42.680;23.324;2023-02-13T04:20:43;97094.34;;;1.95;100.00
13027;BME280;6580;42.680;23.324;2023-02-13T04:23:11;97118.34;;;1.86;100.00
13027;BME280;6580;42.680;23.324;2023-02-13T04:25:40;97111.88;;;1.95;100.00
13027;BME280;6580;42.680;23.324;2023-02-13T04:28:13;97111.81;;;1.96;100.00
13027;BME280;6580;42.680;23.324;2023-02-13T04:30:40;97118.09;;;1.71;100.00
13027;BME280;6580;42.680;23.324;2023-02-13T04:33:07;97116.88;;;1.79;100.00
13027;BME280;6580;42.680;23.324;2023-02-13T04:35:34;97115.72;;;1.86;100.00
13027;BME280;6580;42.680;23.324;2023-02-13T04:38:02;97113.88;;;1.88;100.00
13027;BME280;6580;42.680;23.324;2023-02-13T04:40:30;97114.66;;;1.69;100.00
13027;BME280;6580;42.680;23.324;2023-02-13T04:42:57;97120.88;;;1.66;100.00
13027;BME280;6580;42.680;23.324;2023-02-13T04:45:30;97107.66;;;1.46;100.00
13027;BME280;6580;42.680;23.324;2023-02-13T04:47:58;97119.94;;;1.46;100.00
13027;BME280;6580;42.680;23.324;2023-02-13T04:50:25;97094.09;;;1.35;100.00
13027;BME280;6580;42.680;23.324;2023-02-13T04:52:54;97119.03;;;1.47;100.00
13027;BME280;6580;42.680;23.324;2023-02-13T04:55:22;97127.91;;;1.43;100.00
13027;BME280;6580;42.680;23.324;2023-02-13T04:57:51;97120.56;;;1.29;100.00
13027;BME280;6580;42.680;23.324;2023-02-13T05:00:19;97133.22;;;1.18;100.00
13027;BME280;6580;42.680;23.324;2023-02-13T05:02:50;97132.81;;;1.06;100.00
13027;BME280;6580;42.680;23.324;2023-02-13T05:05:18;97137.31;;;1.02;100.00
13027;BME280;6580;42.680;23.324;2023-02-13T05:07:45;97142.88;;;0.94;100.00
13027;BME280;6580;42.680;23.324;2023-02-13T05:10:12;97149.63;;;1.00;100.00
13027;BME280;6580;42.680;23.324;2023-02-13T05:12:39;97145.28;;;0.99;100.00
13027;BME280;6580;42.680;23.324;2023-02-13T05:15:07;97144.16;;;0.82;100.00
13027;BME280;6580;42.680;23.324;2023-02-13T05:17:35;97145.75;;;1.10;100.00
13027;BME280;6580;42.680;23.324;2023-02-13T05:20:03;97147.81;;;1.02;100.00
13027;BME280;6580;42.680;23.324;2023-02-13T05:22:30;97157.53;;;1.23;100.00
13027;BME280;6580;42.680;23.324;2023-02-13T05:25:17;97150.78;;;1.16;100.00
13027;BME280;6580;42.680;23.324;2023-02-13T05:27:43;97146.31;;;0.96;100.00
13027;BME280;6580;42.680;23.324;2023-02-13T05:30:12;97157.16;;;1.09;100.00
13027;BME280;6580;42.680;23.324;2023-02-13T05:32:41;97158.09;;;1.08;100.00
13027;BME280;6580;42.680;23.324;2023-02-13T05:35:10;97135.50;;;1.04;100.00
13027;BME280;6580;42.680;23.324;2023-02-13T05:37:42;97156.38;;;1.07;100.00
13027;BME280;6580;42.680;23.324;2023-02-13T05:40:12;97154.44;;;1.12;100.00
13027;BME280;6580;42.680;23.324;2023-02-13T05:42:39;97160.72;;;1.31;100.00
13027;BME280;6580;42.680;23.324;2023-02-13T05:45:08;97161.50;;;1.35;100.00
13027;BME280;6580;42.680;23.324;2023-02-13T05:47:36;97125.66;;;0.87;100.00
13027;BME280;6580;42.680;23.324;2023-02-13T05:50:06;97166.88;;;1.07;100.00
13027;BME280;6580;42.680;23.324;2023-02-13T05:52:34;97160.81;;;1.05;100.00
13027;BME280;6580;42.680;23.324;2023-02-13T05:55:07;97161.78;;;1.03;100.00
13027;BME280;6580;42.680;23.324;2023-02-13T05:57:34;97163.00;;;1.17;100.00
13027;BME280;6580;42.680;23.324;2023-02-13T06:00:04;97176.47;;;1.31;100.00
13027;BME280;6580;42.680;23.324;2023-02-13T06:02:31;97170.97;;;1.14;100.00
13027;BME280;6580;42.680;23.324;2023-02-13T06:04:59;97165.53;;;1.20;100.00
13027;BME280;6580;42.680;23.324;2023-02-13T06:07:26;97182.16;;;1.19;100.00
13027;BME280;6580;42.680;23.324;2023-02-13T06:09:54;97188.13;;;1.24;100.00
13027;BME280;6580;42.680;23.324;2023-02-13T06:12:25;97182.00;;;1.24;100.00
13027;BME280;6580;42.680;23.324;2023-02-13T06:14:51;97173.28;;;1.23;100.00
13027;BME280;6580;42.680;23.324;2023-02-13T06:17:20;97185.34;;;1.52;100.00
13027;BME280;6580;42.680;23.324;2023-02-13T06:19:52;97181.84;;;1.51;100.00
13027;BME280;6580;42.680;23.324;2023-02-13T06:22:22;97176.84;;;1.45;100.00
13027;BME280;6580;42.680;23.324;2023-02-13T06:24:49;97198.94;;;1.63;100.00
13027;BME280;6580;42.680;23.324;2023-02-13T06:27:17;97191.53;;;1.49;100.00
13027;BME280;6580;42.680;23.324;2023-02-13T06:29:44;97192.53;;;1.47;100.00
13027;BME280;6580;42.680;23.324;2023-02-13T06:32:11;97181.63;;;1.34;100.00
13027;BME280;6580;42.680;23.324;2023-02-13T06:34:38;97196.00;;;1.47;100.00
13027;BME280;6580;42.680;23.324;2023-02-13T06:37:04;97198.19;;;1.59;100.00
13027;BME280;6580;42.680;23.324;2023-02-13T06:39:33;97180.38;;;1.67;100.00
13027;BME280;6580;42.680;23.324;2023-02-13T06:42:00;97195.16;;;1.70;100.00
13027;BME280;6580;42.680;23.324;2023-02-13T06:44:28;97178.44;;;1.72;100.00
13027;BME280;6580;42.680;23.324;2023-02-13T06:46:55;97200.16;;;1.76;100.00
13027;BME280;6580;42.680;23.324;2023-02-13T06:49:23;97200.47;;;1.91;100.00
13027;BME280;6580;42.680;23.324;2023-02-13T06:51:50;97181.25;;;1.89;100.00
13027;BME280;6580;42.680;23.324;2023-02-13T06:54:17;97184.59;;;1.94;100.00
13027;BME280;6580;42.680;23.324;2023-02-13T06:56:44;97188.63;;;2.24;100.00
13027;BME280;6580;42.680;23.324;2023-02-13T06:59:11;97191.44;;;2.19;100.00
13027;BME280;6580;42.680;23.324;2023-02-13T07:01:42;97191.19;;;2.47;99.81
13027;BME280;6580;42.680;23.324;2023-02-13T07:04:10;97194.16;;;2.39;99.27
13027;BME280;6580;42.680;23.324;2023-02-13T07:06:37;97187.91;;;2.63;97.73
13027;BME280;6580;42.680;23.324;2023-02-13T07:09:04;97188.38;;;2.73;97.14
13027;BME280;6580;42.680;23.324;2023-02-13T07:11:33;97182.00;;;2.57;98.07
13027;BME280;6580;42.680;23.324;2023-02-13T07:14:02;97182.72;;;2.82;97.54
13027;BME280;6580;42.680;23.324;2023-02-13T07:16:28;97137.97;;;2.62;96.28
13027;BME280;6580;42.680;23.324;2023-02-13T07:19:03;97193.22;;;2.82;96.63
13027;BME280;6580;42.680;23.324;2023-02-13T07:21:30;97182.25;;;2.72;97.04
13027;BME280;6580;42.680;23.324;2023-02-13T07:23:57;97196.88;;;2.99;96.51
13027;BME280;6580;42.680;23.324;2023-02-13T07:26:25;97178.84;;;2.90;95.79
13027;BME280;6580;42.680;23.324;2023-02-13T07:28:52;97200.34;;;2.99;95.26
13027;BME280;6580;42.680;23.324;2023-02-13T07:31:31;97194.31;;;2.97;95.91
13027;BME280;6580;42.680;23.324;2023-02-13T07:33:58;97189.28;;;2.92;95.56
13027;BME280;6580;42.680;23.324;2023-02-13T07:36:27;97195.47;;;3.10;95.27
13027;BME280;6580;42.680;23.324;2023-02-13T07:38:54;97192.47;;;3.19;94.27
13027;BME280;6580;42.680;23.324;2023-02-13T07:41:23;97176.59;;;3.01;94.55
13027;BME280;6580;42.680;23.324;2023-02-13T07:43:51;97194.50;;;3.13;94.93
13027;BME280;6580;42.680;23.324;2023-02-13T07:46:18;97192.59;;;3.16;95.35
13027;BME280;6580;42.680;23.324;2023-02-13T07:48:46;97186.94;;;3.45;93.88
13027;BME280;6580;42.680;23.324;2023-02-13T07:51:16;97178.59;;;3.54;92.57
13027;BME280;6580;42.680;23.324;2023-02-13T07:53:48;97183.16;;;3.51;90.67
13027;BME280;6580;42.680;23.324;2023-02-13T07:56:14;97183.50;;;3.43;92.09
13027;BME280;6580;42.680;23.324;2023-02-13T07:58:59;97185.75;;;3.32;92.23
13027;BME280;6580;42.680;23.324;2023-02-13T08:01:39;97194.84;;;3.05;93.45
13027;BME280;6580;42.680;23.324;2023-02-13T08:04:05;97199.81;;;3.11;94.53
13027;BME280;6580;42.680;23.324;2023-02-13T08:06:32;97192.31;;;3.42;94.53
13027;BME280;6580;42.680;23.324;2023-02-13T08:09:03;97188.41;;;3.89;91.71
13027;BME280;6580;42.680;23.324;2023-02-13T08:11:47;97181.41;;;3.88;90.01
13027;BME280;6580;42.680;23.324;2023-02-13T08:14:21;97175.88;;;3.56;89.71
13027;BME280;6580;42.680;23.324;2023-02-13T08:16:48;97184.22;;;3.65;92.11
13027;BME280;6580;42.680;23.324;2023-02-13T08:19:16;97174.69;;;3.44;91.59
13027;BME280;6580;42.680;23.324;2023-02-13T08:21:44;97174.38;;;3.32;93.43
13027;BME280;6580;42.680;23.324;2023-02-13T08:24:13;97182.97;;;3.15;94.52
13027;BME280;6580;42.680;23.324;2023-02-13T08:26:40;97189.69;;;3.02;96.31
13027;BME280;6580;42.680;23.324;2023-02-13T08:29:09;97194.31;;;3.37;95.37
13027;BME280;6580;42.680;23.324;2023-02-13T08:31:36;97161.25;;;3.69;92.83
13027;BME280;6580;42.680;23.324;2023-02-13T08:34:05;97188.69;;;4.01;91.22
13027;BME280;6580;42.680;23.324;2023-02-13T08:36:32;97183.25;;;4.23;89.32
13027;BME280;6580;42.680;23.324;2023-02-13T08:38:59;97180.19;;;4.13;87.66
13027;BME280;6580;42.680;23.324;2023-02-13T08:41:31;97182.00;;;4.13;88.88
13027;BME280;6580;42.680;23.324;2023-02-13T08:44:00;97178.94;;;4.03;89.63
13027;BME280;6580;42.680;23.324;2023-02-13T08:46:27;97188.84;;;3.80;89.25
13027;BME280;6580;42.680;23.324;2023-02-13T08:48:57;97185.50;;;3.95;89.03
13027;BME280;6580;42.680;23.324;2023-02-13T08:51:24;97170.44;;;3.60;89.52
13027;BME280;6580;42.680;23.324;2023-02-13T08:53:51;97185.97;;;4.03;90.59
13027;BME280;6580;42.680;23.324;2023-02-13T08:56:18;97187.47;;;4.45;87.50
13027;BME280;6580;42.680;23.324;2023-02-13T08:58:49;97191.03;;;4.26;86.08
13027;BME280;6580;42.680;23.324;2023-02-13T09:01:16;97183.66;;;4.32;85.75
13027;BME280;6580;42.680;23.324;2023-02-13T09:03:43;97181.09;;;4.49;86.22
13027;BME280;6580;42.680;23.324;2023-02-13T09:06:10;97167.44;;;4.23;85.47
13027;BME280;6580;42.680;23.324;2023-02-13T09:08:37;97185.84;;;4.24;85.97
13027;BME280;6580;42.680;23.324;2023-02-13T09:11:04;97178.53;;;4.29;86.71
13027;BME280;6580;42.680;23.324;2023-02-13T09:13:32;97183.19;;;4.24;85.55
13027;BME280;6580;42.680;23.324;2023-02-13T09:16:04;97185.00;;;4.05;87.63
13027;BME280;6580;42.680;23.324;2023-02-13T09:18:33;97180.34;;;4.10;88.05
13027;BME280;6580;42.680;23.324;2023-02-13T09:21:02;97172.84;;;4.38;88.58
13027;BME280;6580;42.680;23.324;2023-02-13T09:23:31;97166.44;;;4.61;84.41
13027;BME280;6580;42.680;23.324;2023-02-13T09:25:59;97180.44;;;5.13;81.86
13027;BME280;6580;42.680;23.324;2023-02-13T09:28:26;97176.44;;;5.06;80.44
13027;BME280;6580;42.680;23.324;2023-02-13T09:30:53;97171.06;;;4.56;82.81
13027;BME280;6580;42.680;23.324;2023-02-13T09:33:22;97167.50;;;4.57;83.30
13027;BME280;6580;42.680;23.324;2023-02-13T09:35:49;97142.50;;;4.30;84.87
13027;BME280;6580;42.680;23.324;2023-02-13T09:38:16;97168.03;;;4.11;85.04
13027;BME280;6580;42.680;23.324;2023-02-13T09:40:47;97136.91;;;3.82;87.33
13027;BME280;6580;42.680;23.324;2023-02-13T09:43:24;97160.03;;;4.31;86.70
13027;BME280;6580;42.680;23.324;2023-02-13T09:45:55;97145.06;;;4.48;85.90
13027;BME280;6580;42.680;23.324;2023-02-13T09:48:28;97154.00;;;4.98;85.18
13027;BME280;6580;42.680;23.324;2023-02-13T09:50:56;97137.97;;;5.50;80.50
13027;BME280;6580;42.680;23.324;2023-02-13T09:53:25;97141.34;;;5.54;78.42
13027;BME280;6580;42.680;23.324;2023-02-13T09:55:59;97140.34;;;5.72;78.69
13027;BME280;6580;42.680;23.324;2023-02-13T09:58:40;97130.84;;;6.15;76.93
13027;BME280;6580;42.680;23.324;2023-02-13T10:01:25;97127.28;;;6.77;73.74
13027;BME280;6580;42.680;23.324;2023-02-13T10:07:03;97098.25;;;7.04;69.33
13027;BME280;6580;42.680;23.324;2023-02-13T10:09:39;97096.63;;;7.02;68.88
13027;BME280;6580;42.680;23.324;2023-02-13T10:12:29;97098.16;;;8.97;63.58
13027;BME280;6580;42.680;23.324;2023-02-13T10:15:11;97101.03;;;8.94;60.15
13027;BME280;6580;42.680;23.324;2023-02-13T10:17:41;97104.69;;;8.12;58.77
13027;BME280;6580;42.680;23.324;2023-02-13T10:20:21;97093.63;;;8.05;59.61
13027;BME280;6580;42.680;23.324;2023-02-13T10:22:53;97075.25;;;9.33;57.93
13027;BME280;6580;42.680;23.324;2023-02-13T10:25:24;97067.50;;;10.75;52.22
13027;BME280;6580;42.680;23.324;2023-02-13T10:27:54;97070.44;;;9.01;54.26
13027;BME280;6580;42.680;23.324;2023-02-13T10:30:26;97065.63;;;10.41;53.53
13027;BME280;6580;42.680;23.324;2023-02-13T10:32:58;97051.94;;;11.26;50.20
13027;BME280;6580;42.680;23.324;2023-02-13T10:35:52;97038.88;;;12.75;46.30
13027;BME280;6580;42.680;23.324;2023-02-13T10:38:22;97044.06;;;13.39;43.32
13027;BME280;6580;42.680;23.324;2023-02-13T10:41:04;97041.09;;;12.06;44.47
13027;BME280;6580;42.680;23.324;2023-02-13T10:43:38;97046.56;;;11.15;46.86
13027;BME280;6580;42.680;23.324;2023-02-13T10:46:19;97045.03;;;9.59;50.92
13027;BME280;6580;42.680;23.324;2023-02-13T10:49:03;97044.03;;;10.10;50.35
13027;BME280;6580;42.680;23.324;2023-02-13T10:51:39;97026.78;;;10.96;46.55
13027;BME280;6580;42.680;23.324;2023-02-13T10:54:30;97012.22;;;12.00;45.31
13027;BME280;6580;42.680;23.324;2023-02-13T10:57:08;97013.88;;;13.58;41.59
13027;BME280;6580;42.680;23.324;2023-02-13T10:59:50;97016.97;;;12.50;41.50
13027;BME280;6580;42.680;23.324;2023-02-13T11:02:26;97017.28;;;11.26;45.59
13027;BME280;6580;42.680;23.324;2023-02-13T11:04:57;97011.22;;;13.37;42.44
13027;BME280;6580;42.680;23.324;2023-02-13T11:07:30;96997.47;;;14.50;39.12
13027;BME280;6580;42.680;23.324;2023-02-13T11:10:00;96988.03;;;14.75;38.75
13027;BME280;6580;42.680;23.324;2023-02-13T11:12:31;96977.59;;;15.10;37.48
13027;BME280;6580;42.680;23.324;2023-02-13T11:14:59;96989.13;;;14.53;38.31
13027;BME280;6580;42.680;23.324;2023-02-13T11:17:29;96982.97;;;15.74;36.21
13027;BME280;6580;42.680;23.324;2023-02-13T11:19:58;96976.06;;;16.35;35.65
13027;BME280;6580;42.680;23.324;2023-02-13T11:22:29;96967.97;;;14.98;36.28
13027;BME280;6580;42.680;23.324;2023-02-13T11:25:02;96948.69;;;13.38;38.90
13027;BME280;6580;42.680;23.324;2023-02-13T11:27:34;96969.91;;;12.27;41.49
13027;BME280;6580;42.680;23.324;2023-02-13T11:30:05;96960.66;;;13.64;39.99
13027;BME280;6580;42.680;23.324;2023-02-13T11:32:33;96954.72;;;14.96;38.14
13027;BME280;6580;42.680;23.324;2023-02-13T11:35:25;96943.28;;;14.66;38.04
13027;BME280;6580;42.680;23.324;2023-02-13T11:38:18;96939.06;;;15.56;37.01
13027;BME280;6580;42.680;23.324;2023-02-13T11:40:49;96930.13;;;15.01;36.49
13027;BME280;6580;42.680;23.324;2023-02-13T11:43:19;96930.78;;;15.77;36.21
13027;BME280;6580;42.680;23.324;2023-02-13T11:46:01;96913.28;;;16.96;34.28
13027;BME280;6580;42.680;23.324;2023-02-13T11:48:28;96907.63;;;17.25;33.86
13027;BME280;6580;42.680;23.324;2023-02-13T11:50:56;96918.47;;;15.38;34.43
13027;BME280;6580;42.680;23.324;2023-02-13T11:53:28;96903.00;;;14.09;36.61
13027;BME280;6580;42.680;23.324;2023-02-13T11:56:09;96901.91;;;12.31;39.49
13027;BME280;6580;42.680;23.324;2023-02-13T11:59:00;96895.06;;;13.49;38.15
13027;BME280;6580;42.680;23.324;2023-02-13T12:01:28;96872.56;;;14.29;35.85
13027;BME280;6580;42.680;23.324;2023-02-13T12:04:01;96880.13;;;14.05;35.91
13027;BME280;6580;42.680;23.324;2023-02-13T12:06:29;96879.88;;;14.93;35.79
13027;BME280;6580;42.680;23.324;2023-02-13T12:09:11;96869.75;;;15.23;33.87
13027;BME280;6580;42.680;23.324;2023-02-13T12:11:43;96877.28;;;15.56;33.63
13027;BME280;6580;42.680;23.324;2023-02-13T12:14:17;96871.81;;;14.93;34.06
13027;BME280;6580;42.680;23.324;2023-02-13T12:16:47;96871.91;;;15.11;34.42
13027;BME280;6580;42.680;23.324;2023-02-13T12:19:18;96866.09;;;15.88;32.76
13027;BME280;6580;42.680;23.324;2023-02-13T12:22:28;96862.34;;;16.60;31.86
13027;BME280;6580;42.680;23.324;2023-02-13T12:28:12;96843.38;;;15.82;32.05
13027;BME280;6580;42.680;23.324;2023-02-13T12:31:03;96867.69;;;14.99;33.15
13027;BME280;6580;42.680;23.324;2023-02-13T12:34:01;96841.75;;;15.72;31.81
13027;BME280;6580;42.680;23.324;2023-02-13T12:36:41;96841.44;;;16.19;32.27
13027;BME280;6580;42.680;23.324;2023-02-13T12:39:17;96847.59;;;16.02;31.31
13027;BME280;6580;42.680;23.324;2023-02-13T12:42:09;96839.91;;;16.69;30.66
13027;BME280;6580;42.680;23.324;2023-02-13T12:45:01;96843.00;;;16.99;29.98
13027;BME280;6580;42.680;23.324;2023-02-13T12:47:39;96837.81;;;17.06;29.86
13027;BME280;6580;42.680;23.324;2023-02-13T12:50:23;96828.66;;;16.99;30.08
13027;BME280;6580;42.680;23.324;2023-02-13T12:53:11;96830.91;;;18.11;28.55
13027;BME280;6580;42.680;23.324;2023-02-13T12:55:52;96838.81;;;15.20;31.12
13027;BME280;6580;42.680;23.324;2023-02-13T12:58:48;96836.59;;;14.41;32.60
13027;BME280;6580;42.680;23.324;2023-02-13T13:01:25;96827.22;;;12.50;35.34
13027;BME280;6580;42.680;23.324;2023-02-13T13:04:06;96834.34;;;14.27;34.20
13027;BME280;6580;42.680;23.324;2023-02-13T13:06:52;96822.47;;;15.49;31.79
13027;BME280;6580;42.680;23.324;2023-02-13T13:09:59;96821.25;;;15.71;31.32
13027;BME280;6580;42.680;23.324;2023-02-13T13:12:38;96815.22;;;15.23;31.38
13027;BME280;6580;42.680;23.324;2023-02-13T13:15:14;96818.66;;;14.70;32.12
13027;BME280;6580;42.680;23.324;2023-02-13T13:18:12;96818.38;;;14.63;32.87
13027;BME280;6580;42.680;23.324;2023-02-13T13:20:53;96813.91;;;15.36;32.26
13027;BME280;6580;42.680;23.324;2023-02-13T13:23:30;96820.06;;;14.74;32.97
13027;BME280;6580;42.680;23.324;2023-02-13T13:26:15;96802.19;;;15.64;31.94
13027;BME280;6580;42.680;23.324;2023-02-13T13:28:45;96787.56;;;15.13;32.12
13027;BME280;6580;42.680;23.324;2023-02-13T13:31:16;96803.34;;;14.80;33.00
13027;BME280;6580;42.680;23.324;2023-02-13T13:33:45;96803.69;;;14.58;33.19
13027;BME280;6580;42.680;23.324;2023-02-13T13:36:20;96800.06;;;14.21;33.42
13027;BME280;6580;42.680;23.324;2023-02-13T13:38:56;96802.06;;;13.03;34.57
13027;BME280;6580;42.680;23.324;2023-02-13T13:41:31;96793.97;;;10.63;38.62
13027;BME280;6580;42.680;23.324;2023-02-13T13:44:19;96820.47;;;10.42;40.44
13027;BME280;6580;42.680;23.324;2023-02-13T13:46:56;96824.81;;;10.32;40.75